Terminal Aerodrome Forecast
Issued by NWS Sioux Falls, SD

Home | Current Version | Previous Version | Graphics & Text | Print | Product List | Glossary On
Versions: 1 2 3 4 5 6 7 8 9 10 11 12 13 14 15
607
FTUS43 KFSD 250540
TAFFSD
TAF
KFSD 250540Z 2506/2606 15013G19KT P6SM SCT200
     FM250800 16013G19KT P6SM SCT120 WS015/19040KT
     FM251300 17014G21KT P6SM FEW110
     FM251900 20015G23KT P6SM SKC
     FM260100 18006KT P6SM SCT080
     FM260300 04008KT P6SM VCTS BKN080CB=

USA.gov is the U.S. government's official web portal to all federal, state and local government web resources and services.